Time;durP1;ratioP1;P1;durP2;ratioP2;P2;SDS_P1;SDS_P2;PMS_P1;PMS_P2;Temp;Humidity;BMP_temperature;BMP_pressure;BME280_temperature;BME280_humidity;BME280_pressure;Samples;Min_cycle;Max_cycle;Signal;HPM_P1;HPM_P2
2022/06/09 00:00:51;;;;;;;20.73;7.72;;;15.00;99.90;;;;;;5033908;28;20417;-69
2022/06/09 00:03:22;;;;;;;20.42;7.65;;;15.00;99.90;;;;;;5032004;28;20470;-69
2022/06/09 00:05:47;;;;;;;17.02;7.18;;;15.00;99.90;;;;;;5031861;28;20045;-69
2022/06/09 00:08:15;;;;;;;27.60;9.15;;;15.00;99.90;;;;;;5030295;28;20052;-69
2022/06/09 00:10:44;;;;;;;19.52;7.40;;;15.00;99.90;;;;;;5016496;28;20038;-68
2022/06/09 00:13:11;;;;;;;22.38;8.20;;;15.00;99.90;;;;;;5049519;28;20033;-68
2022/06/09 00:15:37;;;;;;;23.80;7.70;;;15.00;99.90;;;;;;5050288;28;20037;-68
2022/06/09 00:18:03;;;;;;;24.08;8.07;;;15.00;99.90;;;;;;5033669;28;20386;-68
2022/06/09 00:20:28;;;;;;;20.02;7.70;;;15.00;99.90;;;;;;5049739;28;20127;-68
2022/06/09 00:22:54;;;;;;;24.42;7.50;;;15.00;99.90;;;;;;5032010;28;20033;-68
2022/06/09 00:25:20;;;;;;;18.95;7.13;;;14.90;99.90;;;;;;5032524;28;20042;-69
2022/06/09 00:27:45;;;;;;;19.13;6.82;;;15.10;99.90;;;;;;5033484;28;20038;-69
2022/06/09 00:30:13;;;;;;;16.52;7.13;;;15.10;99.90;;;;;;5032506;28;20486;-68
2022/06/09 00:32:39;;;;;;;18.98;7.03;;;15.10;99.90;;;;;;5032987;28;20116;-68
2022/06/09 00:35:05;;;;;;;19.55;6.95;;;15.20;99.90;;;;;;5016317;28;20121;-68
2022/06/09 00:37:31;;;;;;;18.50;6.70;;;15.20;99.90;;;;;;5016016;28;20124;-68
2022/06/09 00:39:59;;;;;;;22.00;7.18;;;15.20;99.90;;;;;;5033122;28;20518;-68
2022/06/09 00:42:24;;;;;;;19.08;6.93;;;15.20;99.90;;;;;;5032395;28;20060;-68
2022/06/09 00:44:50;;;;;;;19.15;7.38;;;15.20;99.90;;;;;;5032305;28;20500;-68
2022/06/09 00:47:30;;;;;;;21.80;6.53;;;15.20;99.90;;;;;;5015945;28;20045;-68
2022/06/09 00:50:10;;;;;;;24.27;8.00;;;15.20;99.90;;;;;;5016479;28;20055;-68
2022/06/09 00:52:41;;;;;;;17.25;6.60;;;15.20;99.90;;;;;;5016735;28;20390;-68
2022/06/09 00:55:12;;;;;;;20.30;7.30;;;15.20;99.90;;;;;;5016022;28;20049;-68
2022/06/09 00:57:45;;;;;;;16.83;6.68;;;15.20;99.90;;;;;;5015752;28;20037;-68
2022/06/09 01:00:16;;;;;;;20.13;7.05;;;15.20;99.90;;;;;;5029583;28;20038;-68
2022/06/09 01:02:44;;;;;;;18.73;6.90;;;15.10;99.90;;;;;;5016076;28;20122;-68
2022/06/09 01:05:13;;;;;;;22.92;7.40;;;15.20;99.90;;;;;;5032338;28;20090;-68
2022/06/09 01:07:42;;;;;;;19.73;7.15;;;15.10;99.90;;;;;;5030974;28;20030;-68
2022/06/09 01:10:09;;;;;;;21.08;6.55;;;15.20;99.90;;;;;;5015276;28;20132;-68
2022/06/09 01:12:38;;;;;;;18.30;6.80;;;15.20;99.90;;;;;;5032773;28;20040;-68
2022/06/09 01:15:17;;;;;;;19.65;7.22;;;15.20;99.90;;;;;;5032568;28;20037;-68
2022/06/09 01:18:18;;;;;;;23.42;6.65;;;15.10;99.90;;;;;;5032663;28;20092;-68
2022/06/09 01:20:57;;;;;;;21.25;6.60;;;15.10;99.90;;;;;;5017343;28;20145;-68
2022/06/09 01:24:05;;;;;;;19.20;6.63;;;15.10;99.90;;;;;;5012407;28;20042;-68
2022/06/09 01:26:46;;;;;;;18.02;7.03;;;15.10;99.90;;;;;;5012904;28;20111;-68
2022/06/09 01:29:35;;;;;;;18.00;6.03;;;15.10;99.90;;;;;;5014722;28;20042;-68
2022/06/09 01:32:17;;;;;;;21.75;7.00;;;15.20;99.90;;;;;;5030012;28;20050;-69
2022/06/09 01:35:01;;;;;;;19.15;6.15;;;15.20;99.90;;;;;;5015821;28;20061;-68
2022/06/09 01:37:43;;;;;;;18.77;5.90;;;15.10;99.90;;;;;;5031362;28;20098;-68
2022/06/09 01:40:12;;;;;;;24.20;6.95;;;15.20;99.90;;;;;;5047222;28;20053;-68
2022/06/09 01:42:50;;;;;;;21.33;6.53;;;15.10;99.90;;;;;;5031859;28;20060;-68
2022/06/09 01:45:51;;;;;;;22.83;7.13;;;15.10;99.90;;;;;;5015041;28;20079;-68
2022/06/09 01:48:19;;;;;;;19.15;7.20;;;15.10;99.90;;;;;;4982585;28;20515;-69
2022/06/09 01:51:06;;;;;;;20.17;6.82;;;15.20;99.90;;;;;;5031342;28;20559;-69
2022/06/09 01:53:34;;;;;;;20.48;6.75;;;15.20;99.90;;;;;;5015491;28;20080;-68
2022/06/09 01:56:09;;;;;;;19.95;7.95;;;15.20;99.90;;;;;;5027013;28;20045;-69
2022/06/09 01:58:41;;;;;;;20.45;7.53;;;15.30;99.90;;;;;;5031166;28;20041;-68
2022/06/09 02:01:09;;;;;;;21.10;7.90;;;15.20;99.90;;;;;;5030517;28;20494;-68
2022/06/09 02:03:40;;;;;;;19.20;7.65;;;15.20;99.90;;;;;;5031717;28;20083;-68
2022/06/09 02:06:06;;;;;;;20.95;6.88;;;15.10;99.90;;;;;;5031431;28;20138;-68
2022/06/09 02:08:33;;;;;;;23.48;7.93;;;15.20;99.90;;;;;;5030327;28;20042;-68
2022/06/09 02:11:04;;;;;;;22.20;7.45;;;15.20;99.90;;;;;;5046181;28;20037;-68
2022/06/09 02:13:34;;;;;;;18.55;7.20;;;15.10;99.90;;;;;;5031825;28;20052;-68
2022/06/09 02:16:05;;;;;;;24.38;7.43;;;15.10;99.90;;;;;;5031209;28;20120;-68
2022/06/09 02:18:36;;;;;;;21.58;7.63;;;15.20;99.90;;;;;;5015277;28;20168;-69
2022/06/09 02:21:12;;;;;;;21.80;7.50;;;15.10;99.90;;;;;;5031113;28;20051;-68
2022/06/09 02:23:38;;;;;;;19.25;7.57;;;15.10;99.90;;;;;;5031650;28;20060;-68
2022/06/09 02:26:05;;;;;;;17.40;7.55;;;15.00;99.90;;;;;;5031365;28;20041;-69
2022/06/09 02:28:31;;;;;;;21.48;7.80;;;15.00;99.90;;;;;;5031882;28;20041;-68
2022/06/09 02:30:57;;;;;;;19.75;7.78;;;14.90;99.90;;;;;;5030982;28;20092;-69
2022/06/09 02:33:23;;;;;;;20.00;7.90;;;15.00;99.90;;;;;;5031795;28;20045;-69
2022/06/09 02:35:50;;;;;;;25.92;8.07;;;14.90;99.90;;;;;;5031024;28;20563;-69
2022/06/09 02:38:16;;;;;;;23.60;8.30;;;14.80;99.90;;;;;;5013385;28;20508;-69
2022/06/09 02:40:42;;;;;;;25.30;10.10;;;14.80;99.90;;;;;;5029732;28;20453;-69
2022/06/09 02:43:08;;;;;;;27.15;10.80;;;14.80;99.90;;;;;;5031450;28;20049;-69
2022/06/09 02:45:33;;;;;;;24.95;10.00;;;14.80;99.90;;;;;;5030548;28;20455;-69
2022/06/09 02:48:01;;;;;;;22.40;9.43;;;14.70;99.90;;;;;;5048040;28;20046;-68
2022/06/09 02:50:27;;;;;;;22.83;8.93;;;14.70;99.90;;;;;;5029748;28;20051;-68
2022/06/09 02:52:53;;;;;;;19.98;8.50;;;14.70;99.90;;;;;;5013316;28;20454;-68
2022/06/09 02:55:19;;;;;;;25.38;9.57;;;14.60;99.90;;;;;;5033019;28;20065;-68
2022/06/09 02:57:44;;;;;;;23.80;8.68;;;14.60;99.90;;;;;;5035229;28;20034;-69
2022/06/09 03:00:14;;;;;;;26.25;9.88;;;14.60;99.90;;;;;;5035133;28;20052;-68
2022/06/09 03:02:41;;;;;;;21.15;9.75;;;14.60;99.90;;;;;;5033386;28;20049;-68
2022/06/09 03:05:07;;;;;;;22.58;8.93;;;14.60;99.90;;;;;;5051613;28;20120;-68
2022/06/09 03:07:33;;;;;;;20.42;7.75;;;14.60;99.90;;;;;;5034894;28;20041;-68
2022/06/09 03:09:59;;;;;;;22.73;7.93;;;14.60;99.90;;;;;;5050845;28;20041;-68
2022/06/09 03:12:24;;;;;;;24.77;8.20;;;14.70;99.90;;;;;;5035419;28;20048;-68
2022/06/09 03:14:50;;;;;;;19.42;7.78;;;14.70;99.90;;;;;;5034230;28;20038;-68
2022/06/09 03:17:16;;;;;;;17.92;8.15;;;14.70;99.90;;;;;;5034584;28;20037;-69
2022/06/09 03:19:41;;;;;;;22.35;8.30;;;14.80;99.90;;;;;;5050682;28;20040;-68
2022/06/09 03:22:07;;;;;;;20.73;8.57;;;14.70;99.90;;;;;;5033801;28;20049;-68
2022/06/09 03:24:33;;;;;;;26.73;9.65;;;14.60;99.90;;;;;;5034511;28;20060;-68
2022/06/09 03:26:58;;;;;;;20.58;9.13;;;14.60;99.90;;;;;;5034921;28;20041;-68
2022/06/09 03:29:24;;;;;;;19.00;8.25;;;14.60;99.90;;;;;;5033920;28;20152;-68
2022/06/09 03:31:50;;;;;;;21.08;8.73;;;14.70;99.90;;;;;;5049060;28;20041;-68
2022/06/09 03:34:18;;;;;;;19.58;9.02;;;14.70;99.90;;;;;;5031115;28;20076;-68
2022/06/09 03:36:44;;;;;;;21.05;8.88;;;14.70;99.90;;;;;;5014890;28;20451;-68
2022/06/09 03:39:11;;;;;;;16.00;8.02;;;14.70;99.90;;;;;;5023553;28;20120;-68
2022/06/09 03:41:37;;;;;;;16.42;7.72;;;14.70;99.90;;;;;;5048602;28;20049;-69
2022/06/09 03:44:04;;;;;;;18.80;7.38;;;14.80;99.90;;;;;;5029872;28;20569;-68
2022/06/09 03:46:29;;;;;;;15.93;7.57;;;14.80;99.90;;;;;;5033131;28;20490;-68
2022/06/09 03:48:55;;;;;;;20.70;8.25;;;14.90;99.90;;;;;;5032760;28;20068;-68
2022/06/09 03:51:20;;;;;;;18.85;7.55;;;14.70;99.90;;;;;;5029244;28;20400;-68
2022/06/09 03:53:46;;;;;;;20.98;8.18;;;14.70;99.90;;;;;;5024465;28;20037;-68
2022/06/09 03:56:21;;;;;;;20.98;8.48;;;14.60;99.90;;;;;;5016308;28;20515;-68
2022/06/09 03:58:47;;;;;;;18.77;7.90;;;14.60;99.90;;;;;;5031874;28;20136;-68
2022/06/09 04:01:17;;;;;;;16.15;7.13;;;14.70;99.90;;;;;;5015339;28;20587;-68
2022/06/09 04:03:44;;;;;;;15.30;7.10;;;14.70;99.90;;;;;;5031658;28;20041;-68
2022/06/09 04:06:15;;;;;;;17.98;7.25;;;14.70;99.90;;;;;;5022172;28;20041;-68
2022/06/09 04:08:41;;;;;;;17.30;6.95;;;14.70;99.90;;;;;;5038184;28;20061;-68
2022/06/09 04:11:09;;;;;;;16.52;6.50;;;14.70;99.90;;;;;;5032090;28;20041;-68
2022/06/09 04:13:35;;;;;;;17.45;7.15;;;14.60;99.90;;;;;;5015558;28;20061;-69
2022/06/09 04:16:01;;;;;;;17.95;7.30;;;14.60;99.90;;;;;;5033078;28;20072;-68
2022/06/09 04:18:27;;;;;;;17.65;6.70;;;14.50;99.90;;;;;;5032637;28;20065;-69
2022/06/09 04:20:53;;;;;;;15.15;6.75;;;14.50;99.90;;;;;;5016049;28;20042;-68
2022/06/09 04:23:19;;;;;;;16.90;6.80;;;14.50;99.90;;;;;;5015219;28;20037;-68
2022/06/09 04:25:44;;;;;;;18.00;7.38;;;14.50;99.90;;;;;;5031024;28;20041;-68
2022/06/09 04:28:10;;;;;;;16.17;7.10;;;14.50;99.90;;;;;;5014411;28;20037;-68
2022/06/09 04:30:35;;;;;;;15.40;7.97;;;14.50;99.90;;;;;;5032831;28;20037;-68
2022/06/09 04:33:01;;;;;;;14.32;7.05;;;14.50;99.90;;;;;;5031149;28;20040;-68
2022/06/09 04:35:27;;;;;;;17.42;7.70;;;14.50;99.90;;;;;;5030546;28;20029;-68
2022/06/09 04:38:01;;;;;;;16.67;8.00;;;14.50;99.90;;;;;;5012947;28;20029;-68
2022/06/09 04:40:29;;;;;;;14.73;7.13;;;14.40;99.90;;;;;;5032259;28;20057;-68
2022/06/09 04:42:55;;;;;;;17.70;7.60;;;14.50;99.90;;;;;;5040185;28;20517;-68
2022/06/09 04:45:21;;;;;;;15.27;6.60;;;14.40;99.90;;;;;;5015486;28;20033;-68
2022/06/09 04:47:46;;;;;;;18.35;7.55;;;14.40;99.90;;;;;;5014500;28;20033;-68
2022/06/09 04:50:12;;;;;;;16.13;7.60;;;14.40;99.90;;;;;;5028567;28;20073;-68
2022/06/09 04:52:38;;;;;;;13.35;6.95;;;14.40;99.90;;;;;;5031538;28;20045;-68
2022/06/09 04:55:05;;;;;;;14.90;8.15;;;14.40;99.90;;;;;;5032690;28;20038;-68
2022/06/09 04:57:31;;;;;;;16.13;8.32;;;14.40;99.90;;;;;;5030791;28;20030;-68
2022/06/09 04:59:57;;;;;;;16.83;8.98;;;14.40;99.90;;;;;;5032167;28;20164;-68
2022/06/09 05:02:23;;;;;;;19.67;10.02;;;14.50;99.90;;;;;;5030525;28;20460;-68
2022/06/09 05:04:48;;;;;;;21.58;10.85;;;14.50;99.90;;;;;;5030747;28;20046;-68
2022/06/09 05:07:14;;;;;;;17.80;10.43;;;14.40;99.90;;;;;;5048118;28;20417;-68
2022/06/09 05:09:40;;;;;;;17.75;12.50;;;14.40;99.90;;;;;;5030277;28;20037;-68
2022/06/09 05:12:05;;;;;;;18.92;11.48;;;14.20;99.90;;;;;;5023803;28;20034;-68
2022/06/09 05:14:31;;;;;;;18.25;11.45;;;14.30;99.90;;;;;;5031412;28;20040;-68
2022/06/09 05:16:57;;;;;;;17.92;12.07;;;14.30;99.90;;;;;;5033654;28;20041;-68
2022/06/09 05:19:22;;;;;;;22.10;13.40;;;14.20;99.90;;;;;;5030149;28;20037;-68
2022/06/09 05:21:48;;;;;;;19.33;13.18;;;14.20;99.90;;;;;;5031474;28;20087;-68
2022/06/09 05:24:13;;;;;;;21.13;12.75;;;14.20;99.90;;;;;;5027282;28;20038;-68
2022/06/09 05:26:39;;;;;;;25.85;14.70;;;14.20;99.90;;;;;;5003317;28;20037;-68
2022/06/09 05:29:05;;;;;;;17.63;13.82;;;14.10;99.90;;;;;;5032162;28;20038;-68
2022/06/09 05:31:30;;;;;;;23.38;14.65;;;14.20;99.90;;;;;;5031396;28;20490;-68
2022/06/09 05:33:56;;;;;;;20.13;15.13;;;14.20;99.90;;;;;;5031640;28;20045;-68
2022/06/09 05:36:21;;;;;;;18.83;14.07;;;14.20;99.90;;;;;;5030898;28;20044;-68
2022/06/09 05:47:00;;;;;;;23.23;16.23;;;14.20;99.90;;;;;;5028515;28;20076;-68
2022/06/09 05:49:26;;;;;;;22.17;17.15;;;14.30;99.90;;;;;;5045993;28;20071;-68
2022/06/09 05:51:52;;;;;;;21.92;16.65;;;14.20;99.90;;;;;;5029637;28;20037;-68
2022/06/09 05:54:19;;;;;;;20.13;15.43;;;14.20;99.90;;;;;;5031605;28;20090;-69
2022/06/09 05:56:45;;;;;;;19.15;15.43;;;14.20;99.90;;;;;;5019329;28;20041;-69
2022/06/09 05:59:12;;;;;;;22.20;16.48;;;14.30;99.90;;;;;;5026767;28;20048;-69
2022/06/09 06:01:38;;;;;;;22.00;16.63;;;14.30;99.90;;;;;;5045250;28;20084;-69
2022/06/09 06:04:05;;;;;;;22.08;17.33;;;14.40;99.90;;;;;;5014715;28;20101;-69
2022/06/09 06:06:33;;;;;;;24.83;17.67;;;14.30;99.90;;;;;;5041778;28;20073;-69
2022/06/09 06:09:07;;;;;;;27.80;18.77;;;14.40;99.90;;;;;;5022003;28;20595;-68
2022/06/09 06:11:35;;;;;;;27.13;18.27;;;14.40;99.90;;;;;;5046455;28;20041;-69
2022/06/09 06:14:01;;;;;;;24.30;18.65;;;14.40;99.90;;;;;;5028670;28;20497;-68
2022/06/09 06:16:27;;;;;;;25.98;19.25;;;14.40;99.90;;;;;;5016017;28;20048;-69
2022/06/09 06:18:52;;;;;;;27.83;20.15;;;14.40;99.90;;;;;;5014896;28;20037;-69
2022/06/09 06:21:18;;;;;;;27.15;20.50;;;14.40;99.90;;;;;;5015443;28;20405;-69
2022/06/09 06:23:45;;;;;;;25.73;19.70;;;14.40;99.90;;;;;;5042482;28;20033;-69
2022/06/09 06:26:11;;;;;;;24.77;19.15;;;14.40;99.90;;;;;;5026519;28;20045;-69
2022/06/09 06:28:37;;;;;;;22.85;17.83;;;14.50;99.90;;;;;;5027325;28;20044;-69
2022/06/09 06:31:03;;;;;;;26.05;19.10;;;14.50;99.90;;;;;;5015696;28;20091;-69
2022/06/09 06:33:29;;;;;;;27.55;18.88;;;14.60;99.90;;;;;;5009775;28;20045;-69
2022/06/09 06:35:54;;;;;;;27.23;19.02;;;14.60;99.90;;;;;;5032194;28;20030;-69
2022/06/09 06:38:20;;;;;;;25.50;19.05;;;14.60;99.90;;;;;;5031514;28;20044;-69
2022/06/09 06:40:46;;;;;;;25.50;20.08;;;14.70;99.90;;;;;;5019088;28;20045;-69
2022/06/09 06:43:12;;;;;;;24.30;18.45;;;14.80;99.90;;;;;;5038367;28;20130;-69
2022/06/09 06:45:38;;;;;;;24.77;18.67;;;14.80;99.90;;;;;;5017111;28;20045;-69
2022/06/09 06:48:04;;;;;;;25.65;18.92;;;14.90;99.90;;;;;;5032833;28;20501;-69
2022/06/09 06:50:30;;;;;;;23.23;18.02;;;15.00;99.90;;;;;;5015616;28;20042;-69
2022/06/09 06:52:55;;;;;;;24.52;18.60;;;15.00;99.90;;;;;;5031409;28;20030;-69
2022/06/09 06:55:22;;;;;;;23.35;19.35;;;15.10;99.90;;;;;;5031451;28;20033;-69
2022/06/09 06:57:48;;;;;;;21.75;17.30;;;15.20;99.90;;;;;;5041013;28;20039;-69
2022/06/09 07:00:18;;;;;;;19.52;16.13;;;15.40;99.90;;;;;;5055008;28;20037;-69
2022/06/09 07:02:44;;;;;;;21.02;16.88;;;15.40;99.90;;;;;;5039067;28;20155;-69
2022/06/09 07:05:10;;;;;;;24.15;17.30;;;15.40;99.90;;;;;;5017372;28;20048;-69
2022/06/09 07:07:36;;;;;;;19.52;14.77;;;15.50;99.90;;;;;;5033598;28;20033;-69
2022/06/09 07:10:03;;;;;;;20.38;15.50;;;15.70;99.90;;;;;;5033655;28;20030;-68
2022/06/09 07:12:29;;;;;;;20.17;16.23;;;15.70;99.90;;;;;;5049242;28;20125;-68
2022/06/09 07:14:55;;;;;;;19.65;15.57;;;15.70;99.90;;;;;;5049921;28;20091;-69
2022/06/09 07:17:20;;;;;;;19.63;15.85;;;15.70;99.90;;;;;;5048022;28;20041;-69
2022/06/09 07:19:46;;;;;;;19.85;15.95;;;15.80;99.90;;;;;;5033826;28;20037;-69
2022/06/09 07:22:12;;;;;;;17.77;14.82;;;15.90;99.90;;;;;;5031945;28;20426;-69
2022/06/09 07:24:37;;;;;;;16.58;14.45;;;16.00;99.90;;;;;;5031549;28;20042;-69
2022/06/09 07:27:04;;;;;;;18.23;14.75;;;16.20;99.90;;;;;;5031669;28;20041;-69
2022/06/09 07:29:29;;;;;;;18.02;13.32;;;16.30;99.90;;;;;;5049124;28;20086;-69
2022/06/09 07:31:55;;;;;;;18.33;13.75;;;16.40;99.90;;;;;;5014750;28;20029;-69
2022/06/09 07:34:21;;;;;;;16.55;12.82;;;16.60;99.90;;;;;;5030871;28;20120;-69
2022/06/09 07:36:46;;;;;;;15.32;12.40;;;16.40;99.90;;;;;;5050215;28;20029;-69
2022/06/09 07:39:12;;;;;;;16.20;11.90;;;16.40;99.90;;;;;;5047177;28;20555;-69
2022/06/09 07:41:38;;;;;;;13.45;10.25;;;16.40;99.90;;;;;;5025140;28;20060;-69
2022/06/09 07:44:06;;;;;;;16.83;9.95;;;16.60;99.90;;;;;;5029714;28;20045;-69
2022/06/09 07:46:32;;;;;;;11.98;8.93;;;16.80;99.90;;;;;;5026129;28;20056;-69
2022/06/09 07:48:59;;;;;;;14.02;7.40;;;16.90;99.90;;;;;;5032566;28;20397;-69
2022/06/09 07:51:25;;;;;;;9.88;7.35;;;17.00;99.90;;;;;;5030770;28;20766;-69
2022/06/09 07:53:52;;;;;;;10.75;8.73;;;17.00;99.90;;;;;;5031085;28;20502;-69
2022/06/09 07:56:18;;;;;;;11.30;8.50;;;16.90;99.90;;;;;;5016031;28;20049;-69
2022/06/09 07:58:44;;;;;;;12.20;7.60;;;16.90;99.90;;;;;;5032774;28;20037;-75
2022/06/09 08:01:10;;;;;;;9.57;6.55;;;17.00;99.90;;;;;;5030813;28;20111;-77
2022/06/09 08:03:36;;;;;;;10.35;6.15;;;17.10;99.90;;;;;;5031964;28;20493;-77
2022/06/09 08:06:02;;;;;;;10.40;6.18;;;17.20;99.90;;;;;;5029040;28;20041;-70
2022/06/09 08:08:28;;;;;;;7.95;5.22;;;17.30;99.90;;;;;;5007774;28;20041;-71
2022/06/09 08:10:53;;;;;;;10.70;5.57;;;17.60;99.90;;;;;;5033042;28;20033;-71
2022/06/09 08:13:19;;;;;;;8.88;5.20;;;17.60;99.90;;;;;;5031407;28;20038;-71
2022/06/09 08:15:45;;;;;;;7.78;5.10;;;17.70;99.90;;;;;;5012898;28;20333;-71
2022/06/09 08:18:11;;;;;;;7.57;5.10;;;17.60;99.90;;;;;;5040805;28;20041;-71
2022/06/09 08:20:39;;;;;;;9.77;4.05;;;17.50;99.90;;;;;;5032378;28;20033;-71
2022/06/09 08:23:16;;;;;;;8.90;3.70;;;17.60;99.90;;;;;;5026368;28;20040;-71
2022/06/09 08:25:44;;;;;;;8.00;3.40;;;17.80;99.90;;;;;;5016171;28;20087;-71
2022/06/09 08:28:10;;;;;;;8.00;3.20;;;17.90;99.90;;;;;;5011285;28;20429;-71
2022/06/09 08:30:37;;;;;;;8.82;4.22;;;17.80;99.90;;;;;;5000054;28;20033;-71
2022/06/09 08:33:03;;;;;;;7.20;3.42;;;18.00;99.90;;;;;;5030112;28;20069;-71
2022/06/09 08:35:29;;;;;;;6.38;2.70;;;18.00;99.90;;;;;;5049263;28;20072;-71
2022/06/09 08:37:55;;;;;;;5.50;2.50;;;18.20;99.90;;;;;;5030742;28;20453;-71
2022/06/09 08:40:30;;;;;;;6.80;2.50;;;18.30;99.90;;;;;;5032415;28;20076;-71
2022/06/09 08:43:23;;;;;;;6.50;2.47;;;18.30;99.90;;;;;;5032211;28;20049;-71
2022/06/09 08:45:52;;;;;;;6.68;2.15;;;18.10;99.90;;;;;;5030490;28;20052;-71
2022/06/09 08:48:22;;;;;;;4.45;1.70;;;18.10;99.90;;;;;;5030814;28;20099;-71
2022/06/09 08:51:01;;;;;;;5.95;1.92;;;18.20;99.90;;;;;;5014366;28;20095;-71
2022/06/09 08:53:32;;;;;;;6.35;1.90;;;18.30;99.90;;;;;;5031000;28;20053;-71
2022/06/09 08:56:22;;;;;;;8.68;1.88;;;18.30;99.90;;;;;;5029894;28;20494;-71
2022/06/09 08:58:56;;;;;;;5.53;1.58;;;18.40;99.90;;;;;;5011767;28;20123;-71
2022/06/09 09:01:37;;;;;;;5.10;1.60;;;18.70;99.90;;;;;;5018867;28;20129;-71
2022/06/09 09:04:23;;;;;;;5.20;1.33;;;18.90;99.90;;;;;;5048025;28;20051;-71
2022/06/09 09:07:15;;;;;;;6.47;1.70;;;18.90;99.90;;;;;;5011803;28;20041;-71
2022/06/09 09:09:41;;;;;;;5.72;1.48;;;19.00;99.90;;;;;;5030473;28;20044;-72
2022/06/09 09:12:46;;;;;;;7.70;1.70;;;19.10;99.90;;;;;;5013639;28;20044;-72
2022/06/09 09:15:32;;;;;;;4.85;1.50;;;19.20;99.90;;;;;;5019981;28;20090;-76
2022/06/09 09:18:38;;;;;;;7.50;1.52;;;19.10;99.90;;;;;;5039537;28;20041;-76
2022/06/09 09:21:31;;;;;;;3.47;1.25;;;19.20;99.90;;;;;;5012462;28;20565;-76
2022/06/09 09:24:18;;;;;;;4.90;1.38;;;19.10;99.90;;;;;;5031612;28;20041;-76
2022/06/09 09:27:20;;;;;;;4.47;1.60;;;19.00;99.90;;;;;;5022665;28;20044;-80
2022/06/09 09:30:01;;;;;;;5.13;1.40;;;18.90;99.90;;;;;;5020255;28;20047;-69
2022/06/09 09:32:34;;;;;;;7.25;1.60;;;18.90;99.90;;;;;;5011353;28;20033;-71
2022/06/09 09:35:00;;;;;;;5.35;1.42;;;19.00;99.90;;;;;;5029800;28;20046;-71
2022/06/09 09:37:39;;;;;;;6.63;1.45;;;19.10;99.90;;;;;;5030162;28;20053;-71
2022/06/09 09:40:13;;;;;;;5.65;1.40;;;19.00;99.90;;;;;;5047234;28;20546;-76
2022/06/09 09:42:42;;;;;;;6.35;1.60;;;19.20;99.90;;;;;;5030281;28;20057;-76
2022/06/09 09:45:11;;;;;;;5.20;1.55;;;19.10;99.90;;;;;;5014412;28;20046;-76
2022/06/09 09:47:46;;;;;;;7.90;2.10;;;19.00;99.90;;;;;;5030648;28;20046;-76
2022/06/09 09:50:30;;;;;;;6.43;1.65;;;19.00;99.90;;;;;;5028443;28;20072;-71
2022/06/09 09:53:06;;;;;;;4.95;1.30;;;19.00;99.90;;;;;;5018569;28;20038;-71
2022/06/09 09:55:39;;;;;;;6.40;1.38;;;19.20;99.90;;;;;;5026133;28;20083;-72
2022/06/09 09:58:17;;;;;;;6.43;1.48;;;19.30;99.90;;;;;;5016010;28;20052;-72
2022/06/09 10:00:44;;;;;;;6.30;1.30;;;19.50;99.90;;;;;;5030940;28;20045;-72
2022/06/09 10:09:26;;;;;;;7.03;1.30;;;19.30;99.90;;;;;;5029306;28;20046;-72
2022/06/09 10:11:56;;;;;;;4.78;1.35;;;19.30;99.90;;;;;;5047203;28;20099;-72
2022/06/09 10:14:24;;;;;;;7.35;1.40;;;19.30;99.90;;;;;;5030187;28;20128;-72
2022/06/09 10:16:55;;;;;;;5.78;1.40;;;19.40;99.90;;;;;;5037626;28;20104;-72
2022/06/09 10:19:24;;;;;;;4.30;1.45;;;19.60;99.90;;;;;;5040553;28;20080;-72
2022/06/09 10:21:56;;;;;;;5.70;1.70;;;19.60;99.90;;;;;;5032627;28;20144;-72
2022/06/09 10:24:30;;;;;;;;;;;19.80;99.90;;;;;;5028864;28;20037;-72
2022/06/09 10:26:56;;;;;;;5.82;1.33;;;19.70;99.90;;;;;;5031053;28;20416;-72
2022/06/09 10:29:33;;;;;;;5.20;1.48;;;19.60;99.90;;;;;;5014470;28;20049;-72
2022/06/09 10:31:58;;;;;;;6.22;1.52;;;19.70;99.90;;;;;;5011803;28;20038;-72
2022/06/09 10:34:52;;;;;;;4.38;1.20;;;19.70;99.90;;;;;;5027796;28;20548;-72
2022/06/09 10:37:25;;;;;;;5.55;1.65;;;19.90;99.90;;;;;;5029903;28;20087;-72
2022/06/09 10:40:14;;;;;;;7.38;1.60;;;20.00;99.90;;;;;;5030683;28;20085;-72
2022/06/09 10:42:55;;;;;;;6.03;1.25;;;20.10;99.90;;;;;;5032434;28;20508;-72
2022/06/09 10:45:31;;;;;;;6.85;1.67;;;20.20;99.90;;;;;;5029276;28;20045;-72
2022/06/09 10:57:13;;;;;;;5.93;1.38;;;20.40;99.90;;;;;;5046682;28;20045;-70
2022/06/09 11:00:09;;;;;;;6.10;1.17;;;20.30;99.90;;;;;;5030103;28;20037;-70
2022/06/09 11:02:35;;;;;;;5.43;1.20;;;20.30;99.90;;;;;;5013607;28;20516;-70
2022/06/09 11:05:03;;;;;;;6.38;1.20;;;20.30;99.90;;;;;;5014135;28;20064;-70
2022/06/09 11:07:52;;;;;;;6.88;1.60;;;20.40;99.90;;;;;;5029929;28;20551;-70
2022/06/09 11:10:37;;;;;;;7.18;1.35;;;20.30;99.90;;;;;;4991549;28;20114;-69
2022/06/09 11:13:11;;;;;;;5.97;1.30;;;20.30;99.90;;;;;;5036025;28;20045;-74
2022/06/09 11:15:49;;;;;;;4.90;1.27;;;20.30;99.90;;;;;;5030021;28;21744;-77
2022/06/09 11:18:40;;;;;;;5.97;1.25;;;20.20;99.90;;;;;;5033240;28;20120;-72
2022/06/09 11:21:15;;;;;;;5.80;1.23;;;20.20;99.90;;;;;;5016502;28;20029;-72
2022/06/09 11:24:19;;;;;;;5.65;1.15;;;20.20;99.90;;;;;;5033391;28;20069;-72
2022/06/09 11:27:15;;;;;;;6.93;1.38;;;20.30;99.90;;;;;;5014995;28;20041;-72
2022/06/09 11:29:47;;;;;;;5.22;1.10;;;20.10;99.90;;;;;;5043385;28;20045;-72
2022/06/09 11:32:38;;;;;;;5.35;1.25;;;20.20;99.90;;;;;;5032449;28;20064;-72
2022/06/09 11:35:15;;;;;;;5.15;1.20;;;20.20;99.90;;;;;;5024310;28;20045;-72
2022/06/09 11:38:07;;;;;;;4.13;0.95;;;20.20;99.90;;;;;;5032850;28;20168;-72
2022/06/09 11:40:33;;;;;;;;;;;20.30;99.90;;;;;;5031430;28;20132;-72
2022/06/09 11:43:38;;;;;;;6.20;1.10;;;20.30;99.90;;;;;;5032261;28;19956;-72
2022/06/09 11:46:13;;;;;;;5.75;1.30;;;20.30;99.90;;;;;;5043012;28;20485;-72
2022/06/09 11:48:43;;;;;;;5.90;1.33;;;20.40;99.90;;;;;;5030392;28;20589;-72
2022/06/09 11:51:10;;;;;;;5.00;1.10;;;20.40;99.90;;;;;;5017317;28;20053;-72
2022/06/09 11:53:46;;;;;;;5.03;1.13;;;20.20;99.90;;;;;;5038750;28;20030;-72
2022/06/09 11:56:33;;;;;;;5.30;1.17;;;20.20;99.90;;;;;;5032786;28;20090;-74
2022/06/09 11:59:21;;;;;;;4.47;1.10;;;20.20;99.90;;;;;;5025685;28;20045;-72
2022/06/09 12:02:03;;;;;;;5.43;1.05;;;20.30;99.90;;;;;;5027068;28;20068;-72
2022/06/09 12:05:19;;;;;;;5.38;1.50;;;20.20;99.90;;;;;;5031535;28;20531;-72
2022/06/09 12:08:12;;;;;;;6.50;1.10;;;20.40;99.90;;;;;;5010322;28;20050;-72
2022/06/09 12:10:57;;;;;;;5.65;1.08;;;20.30;99.90;;;;;;5024136;28;20049;-72
2022/06/09 12:13:33;;;;;;;6.28;1.17;;;20.20;99.90;;;;;;5032645;28;20045;-72
2022/06/09 12:16:22;;;;;;;5.88;1.25;;;20.20;99.90;;;;;;5016056;28;20543;-72
2022/06/09 12:19:13;;;;;;;4.97;1.08;;;20.30;99.90;;;;;;5042998;28;20410;-72
2022/06/09 12:21:44;;;;;;;5.22;1.00;;;20.30;99.90;;;;;;5043516;28;20115;-72
2022/06/09 12:24:13;;;;;;;5.53;1.10;;;20.40;99.90;;;;;;5024498;28;20116;-72
2022/06/09 12:26:44;;;;;;;8.07;1.73;;;20.20;99.90;;;;;;5029979;28;20505;-72
2022/06/09 12:29:18;;;;;;;4.20;1.30;;;20.10;99.90;;;;;;5016035;28;20045;-72
2022/06/09 12:32:07;;;;;;;7.10;1.20;;;20.00;99.90;;;;;;5016127;28;20038;-72
2022/06/09 12:34:45;;;;;;;8.02;1.73;;;20.10;99.90;;;;;;5016491;28;20398;-72
2022/06/09 12:37:33;;;;;;;5.75;1.40;;;20.40;99.90;;;;;;5034783;28;20048;-72
2022/06/09 12:40:07;;;;;;;5.72;1.58;;;20.10;99.90;;;;;;5034808;28;20494;-72
2022/06/09 12:42:58;;;;;;;6.85;1.52;;;20.20;99.90;;;;;;5016118;28;20045;-72
2022/06/09 12:45:27;;;;;;;7.35;1.42;;;20.30;99.90;;;;;;5023419;28;20151;-72
2022/06/09 12:47:56;;;;;;;5.63;1.40;;;20.40;99.90;;;;;;5031840;28;20513;-71
2022/06/09 12:50:47;;;;;;;6.82;1.50;;;20.30;99.90;;;;;;5040301;28;20063;-73
2022/06/09 12:53:22;;;;;;;6.20;1.17;;;19.90;99.90;;;;;;5024892;28;20033;-73
2022/06/09 12:55:55;;;;;;;5.82;1.60;;;19.90;99.90;;;;;;5020754;28;20040;-73
2022/06/09 12:58:35;;;;;;;5.13;1.33;;;19.90;99.90;;;;;;5032366;28;20501;-73
2022/06/09 13:01:04;;;;;;;4.18;1.55;;;19.90;99.90;;;;;;5015856;28;20076;-73
2022/06/09 13:03:32;;;;;;;5.97;1.15;;;19.70;99.90;;;;;;5032590;28;20044;-73
2022/06/09 13:06:38;;;;;;;4.75;1.40;;;19.70;99.90;;;;;;5015812;28;20045;-73
2022/06/09 13:09:21;;;;;;;4.03;1.00;;;19.60;99.90;;;;;;5019740;28;20061;-73
2022/06/09 13:14:35;;;;;;;5.65;1.42;;;19.50;99.90;;;;;;5042454;28;20048;-77
2022/06/09 13:17:28;;;;;;;4.88;1.00;;;19.40;99.90;;;;;;5051920;28;20040;-76
2022/06/09 13:20:02;;;;;;;6.68;1.50;;;19.40;99.90;;;;;;5050576;28;20053;-76
2022/06/09 13:22:29;;;;;;;6.55;1.52;;;19.40;99.90;;;;;;5035685;28;20128;-77
2022/06/09 13:24:56;;;;;;;6.00;1.75;;;19.40;99.90;;;;;;5037820;28;20033;-77
2022/06/09 13:27:26;;;;;;;9.13;2.15;;;19.60;99.90;;;;;;5029164;28;20045;-77